Time;durP1;ratioP1;P1;durP2;ratioP2;P2;SDS_P1;SDS_P2;PMS_P1;PMS_P2;Temp;Humidity;BMP_temperature;BMP_pressure;BME280_temperature;BME280_humidity;BME280_pressure;Samples;Min_cycle;Max_cycle;Signal;HPM_P1;HPM_P2
2023/01/28 00:01:42;;;;;;;5.20;3.70;;;1.50;84.30;;;5.07;49.59;98164.59;5031849;28;20037;-44
2023/01/28 00:04:10;;;;;;;7.93;4.40;;;1.60;84.30;;;5.09;49.76;98164.50;5031425;28;20052;-46
2023/01/28 00:06:38;;;;;;;7.10;4.23;;;1.60;84.80;;;5.12;49.37;98159.00;5032354;28;20083;-47
2023/01/28 00:09:06;;;;;;;4.80;3.33;;;1.60;84.50;;;5.11;50.20;98166.06;5032058;28;20425;-44
2023/01/28 00:11:34;;;;;;;5.83;4.07;;;1.60;84.80;;;5.12;50.29;98154.56;5031659;28;20045;-45
2023/01/28 00:14:03;;;;;;;5.57;3.67;;;1.60;84.80;;;5.11;49.72;98162.59;5032420;28;20163;-44
2023/01/28 00:16:31;;;;;;;5.97;3.50;;;1.60;84.40;;;5.10;49.53;98167.03;5030853;28;20045;-44
2023/01/28 00:18:59;;;;;;;7.20;3.77;;;1.70;84.70;;;5.11;49.80;98168.69;5032018;28;20524;-44
2023/01/28 00:21:26;;;;;;;7.83;3.40;;;1.60;84.60;;;5.08;49.48;98170.75;5031732;28;20049;-46
2023/01/28 00:23:56;;;;;;;7.27;3.90;;;1.60;84.50;;;5.07;50.00;98164.59;5032177;28;20050;-43
2023/01/28 00:26:25;;;;;;;4.93;3.13;;;1.60;84.60;;;5.06;49.76;98173.50;5030916;28;20053;-47
2023/01/28 00:28:52;;;;;;;5.90;3.20;;;1.60;84.60;;;5.06;49.33;98173.50;5031865;28;20048;-48
2023/01/28 00:31:24;;;;;;;5.97;3.57;;;1.60;84.80;;;5.08;49.86;98173.38;5030400;28;20053;-44
2023/01/28 00:33:54;;;;;;;8.53;4.47;;;1.60;84.70;;;5.09;49.66;98165.31;5024904;28;20045;-44
2023/01/28 00:36:25;;;;;;;6.43;3.63;;;1.60;84.70;;;5.11;49.34;98170.50;5031585;28;20519;-43
2023/01/28 00:38:56;;;;;;;12.00;6.50;;;1.60;84.50;;;5.10;49.49;98163.56;5032183;28;20493;-45
2023/01/28 00:41:27;;;;;;;6.37;4.53;;;1.60;84.70;;;5.13;50.25;98158.84;5029843;28;20460;-44
2023/01/28 00:43:58;;;;;;;5.32;3.38;;;1.60;84.60;;;5.12;50.11;98159.00;5031921;28;20038;-45
2023/01/28 00:46:26;;;;;;;5.87;3.17;;;1.60;85.00;;;5.11;50.16;98155.50;5031689;28;20416;-43
2023/01/28 00:48:54;;;;;;;5.80;2.90;;;1.50;84.80;;;5.08;50.15;98161.03;5029552;28;20519;-42
2023/01/28 00:51:22;;;;;;;6.20;3.17;;;1.50;85.10;;;5.08;49.48;98161.03;5029845;28;20065;-44
2023/01/28 00:53:50;;;;;;;6.43;3.40;;;1.50;85.40;;;5.06;50.27;98160.28;5031653;28;20041;-44
2023/01/28 00:56:18;;;;;;;6.23;3.47;;;1.50;85.20;;;5.07;49.63;98161.97;5030157;28;20052;-45
2023/01/28 00:58:47;;;;;;;5.20;3.10;;;1.50;85.60;;;5.03;49.83;98159.69;5030264;28;20086;-43
2023/01/28 01:01:26;;;;;;;6.77;3.90;;;1.40;85.20;;;4.93;49.52;98156.88;5031400;28;20050;-45
2023/01/28 01:04:01;;;;;;;4.93;3.20;;;1.30;84.90;;;4.92;49.46;98150.78;5007059;28;20728;-43
2023/01/28 01:06:34;;;;;;;5.30;2.83;;;1.30;86.30;;;4.95;50.09;98152.31;5030094;28;20049;-47
2023/01/28 01:09:10;;;;;;;5.00;2.90;;;1.30;86.30;;;4.98;49.57;98151.25;5031631;28;20065;-46
2023/01/28 01:11:40;;;;;;;5.60;3.10;;;1.40;86.70;;;4.99;49.98;98153.78;5029592;28;20052;-42
2023/01/28 01:14:10;;;;;;;5.53;3.17;;;1.40;85.90;;;5.00;50.15;98155.47;5029981;28;20049;-44
2023/01/28 01:16:39;;;;;;;4.90;3.07;;;1.50;85.80;;;4.97;50.01;98150.41;5030103;28;20609;-43
2023/01/28 01:19:08;;;;;;;5.03;3.40;;;1.40;85.40;;;4.99;50.39;98155.59;5030219;28;20049;-45
2023/01/28 01:21:36;;;;;;;4.73;3.10;;;1.40;85.40;;;4.98;49.93;98161.81;5029690;28;20049;-45
2023/01/28 01:24:04;;;;;;;7.33;3.67;;;1.40;85.60;;;4.98;49.71;98154.72;5030987;28;20041;-44
2023/01/28 01:26:32;;;;;;;5.60;2.73;;;1.40;85.50;;;4.92;49.70;98163.97;5029490;28;20052;-47
2023/01/28 01:29:00;;;;;;;5.87;3.43;;;1.30;86.10;;;4.91;49.64;98158.78;5031154;28;20052;-45
2023/01/28 01:31:28;;;;;;;6.27;3.03;;;1.30;86.00;;;4.94;49.99;98161.19;5029228;28;20045;-45
2023/01/28 01:33:55;;;;;;;5.93;3.10;;;1.30;86.30;;;4.96;49.67;98163.72;5029806;28;20068;-43
2023/01/28 01:36:25;;;;;;;5.07;3.03;;;1.30;87.10;;;4.95;50.12;98168.16;5029118;28;20052;-43
2023/01/28 01:38:54;;;;;;;7.70;3.77;;;1.30;85.80;;;4.91;50.07;98174.63;5029830;28;20049;-45
2023/01/28 01:41:30;;;;;;;8.80;4.83;;;1.30;86.60;;;4.88;50.16;98174.84;5030692;28;20493;-48
2023/01/28 01:44:04;;;;;;;4.90;3.33;;;1.30;87.10;;;4.91;50.10;98174.63;5020961;28;20133;-45
2023/01/28 01:46:48;;;;;;;4.82;2.83;;;1.30;86.90;;;4.90;49.53;98180.84;5030317;28;20056;-44
2023/01/28 01:49:27;;;;;;;5.75;3.25;;;1.30;86.50;;;4.83;49.80;98177.81;5029907;28;20045;-47
2023/01/28 01:52:02;;;;;;;4.80;3.03;;;1.30;86.30;;;4.83;49.78;98177.00;5021777;28;20045;-48
2023/01/28 01:54:32;;;;;;;5.40;3.07;;;1.20;87.40;;;4.81;50.78;98179.72;5031159;28;20060;-46
2023/01/28 01:57:02;;;;;;;5.30;3.33;;;1.20;87.60;;;4.82;50.49;98176.13;5013381;28;20050;-45
2023/01/28 01:59:33;;;;;;;8.27;3.67;;;1.20;87.80;;;4.87;49.94;98176.63;5029676;28;20052;-43
2023/01/28 02:02:06;;;;;;;4.97;3.17;;;1.30;87.70;;;4.89;50.11;98173.91;5013169;28;20052;-45
2023/01/28 02:04:42;;;;;;;5.27;2.90;;;1.30;87.60;;;4.88;50.60;98170.38;5030796;28;20524;-44
2023/01/28 02:07:15;;;;;;;6.13;3.28;;;1.30;87.70;;;4.89;50.70;98166.81;5030687;28;20041;-45
2023/01/28 02:09:43;;;;;;;5.40;3.10;;;1.30;87.60;;;4.91;50.43;98170.19;5029386;28;20046;-46
2023/01/28 02:12:20;;;;;;;6.13;3.20;;;1.40;87.60;;;4.89;50.00;98171.25;5029696;28;20061;-45
2023/01/28 02:14:57;;;;;;;5.37;3.17;;;1.40;87.20;;;4.90;50.21;98165.00;5013594;28;20056;-43
2023/01/28 02:17:26;;;;;;;6.30;4.00;;;1.40;87.30;;;4.91;50.01;98167.53;5024233;28;20524;-45
2023/01/28 02:20:06;;;;;;;7.47;3.40;;;1.40;87.30;;;4.90;50.16;98167.66;5025414;28;20049;-46
2023/01/28 02:23:11;;;;;;;6.63;3.37;;;1.40;87.10;;;4.88;50.38;98172.19;5034021;28;20052;-43
2023/01/28 02:26:27;;;;;;;6.65;4.03;;;1.50;87.10;;;4.87;50.66;98170.53;5034150;28;20499;-45
2023/01/28 02:29:13;;;;;;;6.97;3.57;;;1.50;87.20;;;4.90;50.55;98170.28;5012267;28;20056;-46
2023/01/28 02:31:53;;;;;;;5.60;3.43;;;1.50;87.30;;;4.90;50.10;98175.56;5017317;28;20417;-44
2023/01/28 02:34:46;;;;;;;3.90;2.90;;;1.50;87.30;;;4.91;50.72;98177.25;5032885;28;20054;-43
2023/01/28 02:37:37;;;;;;;4.17;2.63;;;1.50;87.20;;;4.91;50.91;98178.09;5027908;28;20049;-48
2023/01/28 02:40:12;;;;;;;5.40;3.80;;;1.50;87.10;;;4.96;50.29;98180.38;5010689;28;20061;-43
2023/01/28 02:42:40;;;;;;;5.27;3.20;;;1.50;87.30;;;4.99;51.02;98180.16;5017008;28;20053;-44
2023/01/28 02:47:56;;;;;;;5.17;3.40;;;1.50;87.50;;;4.99;50.70;98185.44;5032701;28;20049;-43
2023/01/28 02:48:22;;;;;;;5.27;3.10;;;1.60;87.70;;;5.05;50.77;98184.16;5021575;28;20060;-43
2023/01/28 02:51:10;;;;;;;6.13;3.57;;;1.60;87.60;;;5.02;50.76;98182.59;5032714;28;20535;-47
2023/01/28 02:54:24;;;;;;;7.07;3.10;;;1.60;87.50;;;5.03;50.87;98189.53;5032133;28;20420;-43
2023/01/28 02:56:57;;;;;;;6.53;3.60;;;1.60;87.70;;;5.10;50.51;98189.94;5032469;28;20057;-43
2023/01/28 02:59:45;;;;;;;6.23;3.63;;;1.60;87.70;;;5.11;50.16;98186.34;5032551;28;20053;-44
2023/01/28 03:02:41;;;;;;;6.70;3.80;;;1.70;88.20;;;5.12;50.68;98183.59;5026791;28;20046;-47
2023/01/28 03:05:36;;;;;;;5.80;3.10;;;1.70;88.30;;;5.09;50.88;98188.25;5027548;28;20042;-43
2023/01/28 03:09:21;;;;;;;6.22;3.83;;;1.70;88.50;;;5.14;50.53;98188.75;5017092;28;20056;-46
2023/01/28 03:36:48;;;;;;;14.17;6.23;;;1.70;90.20;;;5.22;51.40;98196.94;5031520;28;20124;-47
2023/01/28 03:39:37;;;;;;;11.40;5.13;;;1.60;90.00;;;5.25;50.84;98198.50;5019238;28;20052;-45
2023/01/28 03:42:12;;;;;;;6.73;3.77;;;1.70;91.30;;;5.24;50.85;98207.41;5031582;28;20045;-46
2023/01/28 03:45:08;;;;;;;5.20;3.67;;;1.60;90.40;;;5.23;51.60;98203.91;5034708;28;20056;-45
2023/01/28 03:47:39;;;;;;;5.57;3.83;;;1.60;90.80;;;5.24;50.99;98202.13;5030849;28;20513;-43
2023/01/28 03:50:10;;;;;;;6.70;4.55;;;1.70;91.00;;;5.27;50.90;98204.50;5031133;28;20057;-47
2023/01/28 03:52:47;;;;;;;7.67;4.80;;;1.70;91.00;;;5.30;50.72;98205.13;5024088;28;20045;-44
2023/01/28 03:55:24;;;;;;;7.87;4.57;;;1.70;91.30;;;5.31;50.92;98201.53;5031212;28;20072;-46
2023/01/28 03:57:52;;;;;;;6.07;3.83;;;1.70;91.20;;;5.31;50.78;98201.53;5030757;28;23087;-44
2023/01/28 04:00:21;;;;;;;7.03;5.10;;;1.70;91.70;;;5.28;50.83;98201.75;5030950;28;20049;-44
2023/01/28 04:02:49;;;;;;;6.23;4.03;;;1.70;91.70;;;5.29;50.65;98205.25;5030991;28;20056;-49
2023/01/28 04:05:20;;;;;;;6.07;3.70;;;1.70;91.70;;;5.31;51.18;98209.47;5031126;28;20185;-45
2023/01/28 04:07:50;;;;;;;6.73;4.63;;;1.80;91.50;;;5.28;50.78;98204.41;5032322;28;20515;-44
2023/01/28 04:10:25;;;;;;;5.87;4.13;;;1.70;92.00;;;5.31;50.91;98206.81;5030872;28;20065;-47
2023/01/28 04:12:57;;;;;;;6.07;4.40;;;1.70;92.50;;;5.29;51.29;98205.25;5030507;28;20045;-47
2023/01/28 04:15:25;;;;;;;6.00;4.33;;;1.70;92.40;;;5.28;51.75;98206.22;5031027;28;20061;-47
2023/01/28 04:17:54;;;;;;;8.47;5.13;;;1.70;92.50;;;5.27;51.44;98210.66;5031060;28;20054;-45
2023/01/28 04:20:26;;;;;;;7.07;4.20;;;1.70;92.50;;;5.28;51.72;98214.13;5030547;28;20045;-47
2023/01/28 04:22:57;;;;;;;7.00;4.77;;;1.70;92.60;;;5.28;51.09;98209.69;5030624;28;20055;-46
2023/01/28 04:25:25;;;;;;;7.07;4.43;;;1.70;92.20;;;5.23;51.54;98211.81;5031123;28;20042;-45
2023/01/28 04:27:53;;;;;;;6.93;4.87;;;1.70;92.30;;;5.23;51.32;98219.72;5030845;28;20081;-46
2023/01/28 04:30:25;;;;;;;6.80;4.40;;;1.70;92.70;;;5.24;51.75;98217.97;5030554;28;20049;-43
2023/01/28 04:33:13;;;;;;;7.50;5.03;;;1.70;92.80;;;5.22;51.56;98219.88;5027905;28;20056;-50
2023/01/28 04:36:10;;;;;;;8.07;4.57;;;1.60;93.00;;;5.20;51.62;98227.91;5027704;28;20060;-44
2023/01/28 04:38:57;;;;;;;7.07;4.20;;;1.60;93.20;;;5.20;51.33;98224.41;5030861;28;20048;-47
2023/01/28 04:41:48;;;;;;;8.23;5.03;;;1.60;93.60;;;5.22;51.77;98230.44;5011881;28;20346;-43
2023/01/28 04:44:26;;;;;;;9.13;5.00;;;1.60;93.90;;;5.19;51.81;98228.84;5030375;28;20042;-48
2023/01/28 04:47:14;;;;;;;6.70;4.80;;;1.60;94.60;;;5.20;51.42;98237.63;5022768;28;20381;-47
2023/01/28 04:50:00;;;;;;;7.70;4.27;;;1.60;95.10;;;5.17;52.07;98230.75;5031383;28;20052;-43
2023/01/28 04:52:41;;;;;;;8.77;4.67;;;1.60;95.20;;;5.17;51.80;98229.91;5029943;28;20049;-43
2023/01/28 04:55:35;;;;;;;8.57;4.10;;;1.60;95.80;;;5.17;52.08;98241.31;5031792;28;20037;-46
2023/01/28 04:58:03;;;;;;;9.27;4.70;;;1.60;96.00;;;5.17;51.91;98229.91;5022542;28;20045;-44
2023/01/28 05:00:33;;;;;;;8.93;4.43;;;1.60;96.30;;;5.14;51.68;98233.63;5030050;28;20531;-46
2023/01/28 05:03:01;;;;;;;6.80;4.17;;;1.50;96.50;;;5.10;51.95;98235.66;5029986;28;20050;-45
2023/01/28 05:05:31;;;;;;;9.33;5.07;;;1.50;97.40;;;5.10;52.41;98237.47;5030099;28;20057;-47
2023/01/28 05:08:08;;;;;;;10.57;5.30;;;1.50;97.30;;;5.10;51.89;98240.09;5030498;28;20501;-44
2023/01/28 05:10:36;;;;;;;7.33;4.90;;;1.50;98.10;;;5.08;52.14;98242.84;5031263;28;20049;-44
2023/01/28 05:13:03;;;;;;;9.87;5.23;;;1.50;98.40;;;5.11;52.36;98244.41;5030292;28;20049;-46
2023/01/28 05:15:31;;;;;;;10.87;5.80;;;1.50;98.80;;;5.09;52.34;98239.22;5030028;28;20045;-48
2023/01/28 05:17:59;;;;;;;7.93;5.13;;;1.60;99.10;;;5.06;52.96;98242.13;5031449;28;20045;-47
2023/01/28 05:20:32;;;;;;;7.63;4.97;;;1.60;98.80;;;5.09;52.47;98243.66;5031208;28;20049;-45
2023/01/28 05:23:02;;;;;;;10.80;5.77;;;1.60;99.20;;;5.12;52.91;98246.94;5029807;28;20311;-46
2023/01/28 05:25:42;;;;;;;9.63;5.97;;;1.60;99.50;;;5.17;52.71;98248.41;5029715;28;20052;-47
2023/01/28 05:28:10;;;;;;;8.73;5.73;;;1.60;99.90;;;5.18;52.08;98245.66;5029704;28;20054;-48
2023/01/28 05:30:38;;;;;;;8.87;5.47;;;1.60;99.90;;;5.19;52.00;98244.69;5029577;28;20068;-49
2023/01/28 05:33:06;;;;;;;8.07;5.50;;;1.60;99.90;;;5.21;52.68;98253.31;5022290;28;20041;-45
2023/01/28 05:35:35;;;;;;;7.20;5.23;;;1.60;99.90;;;5.22;52.33;98248.91;5029098;28;20049;-45
2023/01/28 05:38:04;;;;;;;7.13;5.30;;;1.60;99.90;;;5.23;52.56;98247.94;5030821;28;20037;-46
2023/01/28 05:40:32;;;;;;;8.80;5.27;;;1.70;99.90;;;5.20;52.70;98256.94;5013010;28;20505;-43
2023/01/28 05:43:01;;;;;;;8.10;5.10;;;1.70;99.90;;;5.21;52.27;98258.59;5029477;28;20045;-49
2023/01/28 05:45:43;;;;;;;8.83;5.23;;;1.70;99.90;;;5.22;52.58;98262.94;5029323;28;20052;-45
2023/01/28 05:48:16;;;;;;;9.77;5.10;;;1.70;99.90;;;5.25;52.44;98257.44;5028964;28;20056;-48
2023/01/28 05:51:16;;;;;;;7.60;5.17;;;1.70;99.90;;;5.27;52.84;98260.81;5037097;28;20113;-48
2023/01/28 05:53:52;;;;;;;7.33;4.57;;;1.70;99.90;;;5.27;52.58;98257.31;5034953;28;20037;-49
2023/01/28 05:56:22;;;;;;;9.97;5.97;;;1.70;99.90;;;5.27;53.07;98262.59;5033688;28;20045;-49
2023/01/28 05:58:50;;;;;;;9.97;6.07;;;1.70;99.90;;;5.24;53.01;98261.03;5033649;28;20041;-45
2023/01/28 06:01:19;;;;;;;9.50;5.87;;;1.70;99.90;;;5.22;52.51;98259.47;5033531;28;20046;-46
2023/01/28 06:03:52;;;;;;;;;;;1.70;99.90;;;5.18;52.66;98261.47;5033728;28;20045;-45
2023/01/28 06:06:20;;;;;;;9.37;5.40;;;1.70;99.90;;;5.26;52.98;98263.56;5034070;28;19928;-44
2023/01/28 06:08:48;;;;;;;6.90;4.60;;;1.70;99.90;;;5.22;52.39;98264.75;5032965;28;20045;-48
2023/01/28 06:11:22;;;;;;;8.23;5.80;;;1.70;99.90;;;5.20;52.54;98270.13;5033551;28;20064;-47
2023/01/28 06:13:53;;;;;;;9.50;5.20;;;1.70;99.90;;;5.22;52.48;98276.16;5033589;28;20045;-49
2023/01/28 06:16:51;;;;;;;9.57;6.17;;;1.70;99.90;;;5.25;52.34;98280.34;5032235;28;20053;-48
2023/01/28 06:19:24;;;;;;;10.07;5.75;;;1.70;99.90;;;5.24;52.24;98283.97;5032894;28;20073;-48
2023/01/28 06:21:52;;;;;;;10.37;7.10;;;1.70;99.90;;;5.23;52.39;98285.72;5024253;28;20050;-46
2023/01/28 06:24:20;;;;;;;12.90;7.57;;;1.70;99.90;;;5.22;52.88;98293.78;5033486;28;20052;-45
2023/01/28 06:26:48;;;;;;;14.57;9.30;;;1.70;99.90;;;5.19;52.86;98296.63;5032736;28;20041;-46
2023/01/28 06:29:16;;;;;;;14.83;9.30;;;1.70;99.90;;;5.15;53.24;98293.38;5032743;28;20053;-46
2023/01/28 06:31:43;;;;;;;11.63;7.67;;;1.70;99.90;;;5.18;52.60;98297.59;5032979;28;20045;-45
2023/01/28 06:34:12;;;;;;;9.40;6.80;;;1.70;99.90;;;5.18;53.21;98297.59;5034960;28;20045;-47
2023/01/28 06:36:39;;;;;;;12.20;7.30;;;1.70;99.90;;;5.16;52.76;98297.72;5034158;28;20045;-45
2023/01/28 06:39:07;;;;;;;11.73;7.53;;;1.60;99.90;;;5.09;52.97;98302.56;5033967;28;20044;-43
2023/01/28 06:41:35;;;;;;;14.87;7.57;;;1.50;99.90;;;5.11;52.47;98305.94;5033739;28;20212;-45
2023/01/28 06:44:03;;;;;;;12.67;7.27;;;1.50;99.90;;;5.16;52.47;98307.41;5034044;28;20168;-46
2023/01/28 06:46:31;;;;;;;10.47;5.90;;;1.60;99.90;;;5.12;53.00;98312.09;5034044;28;20042;-46
2023/01/28 06:48:59;;;;;;;11.47;6.70;;;1.50;99.90;;;5.08;53.01;98315.91;5033041;28;20520;-43
2023/01/28 06:51:27;;;;;;;11.63;6.23;;;1.40;99.90;;;4.97;52.68;98316.66;5033680;28;20049;-45
2023/01/28 06:53:55;;;;;;;10.70;6.43;;;1.40;99.90;;;4.92;53.77;98316.13;5032449;28;20064;-50
2023/01/28 06:56:22;;;;;;;8.97;6.23;;;1.30;99.90;;;4.91;53.30;98317.09;5033883;28;20604;-43
2023/01/28 06:58:50;;;;;;;10.80;6.90;;;1.20;99.90;;;4.89;53.32;98314.56;5033310;28;20335;-44
2023/01/28 07:01:18;;;;;;;10.63;7.10;;;1.20;99.90;;;4.89;53.91;98316.38;5033255;28;20539;-45
2023/01/28 07:03:46;;;;;;;11.73;6.90;;;1.20;99.90;;;4.84;53.55;98318.47;5033400;28;20037;-46
2023/01/28 07:06:14;;;;;;;10.60;5.87;;;1.20;99.90;;;4.80;54.07;98320.50;5033480;28;20371;-50
2023/01/28 07:08:42;;;;;;;11.53;6.40;;;1.20;99.90;;;4.77;53.52;98333.06;5033872;28;20389;-48
2023/01/28 07:11:10;;;;;;;10.77;6.57;;;1.10;99.90;;;4.71;53.88;98335.19;5024875;28;20501;-45
2023/01/28 07:13:37;;;;;;;12.07;7.17;;;1.10;99.90;;;4.71;54.09;98329.03;5033231;28;20041;-44
2023/01/28 07:16:06;;;;;;;8.20;6.37;;;1.10;99.90;;;4.75;53.81;98333.19;5033469;28;20303;-48
2023/01/28 07:18:34;;;;;;;10.07;6.30;;;1.20;99.90;;;4.79;54.10;98334.66;5033104;28;20052;-47
2023/01/28 07:21:02;;;;;;;12.03;7.47;;;1.20;99.90;;;4.81;54.58;98343.28;5031382;28;20051;-44
2023/01/28 07:23:30;;;;;;;13.87;9.17;;;1.30;99.90;;;4.84;54.04;98340.44;5032967;28;20044;-47
2023/01/28 07:26:02;;;;;;;13.27;8.20;;;1.30;99.90;;;4.87;54.68;98339.38;5031675;28;20128;-43
2023/01/28 07:28:31;;;;;;;12.03;7.00;;;1.40;99.90;;;4.90;54.08;98340.00;5031812;28;20048;-45
2023/01/28 07:30:58;;;;;;;14.53;7.77;;;1.40;99.90;;;4.95;54.08;98344.13;5032717;28;20052;-44
2023/01/28 07:33:26;;;;;;;13.47;8.07;;;1.40;99.90;;;4.96;54.10;98346.63;5032789;28;20048;-45
2023/01/28 07:35:54;;;;;;;10.57;7.43;;;1.50;99.90;;;4.99;54.47;98341.16;5031716;28;20041;-47
2023/01/28 07:38:22;;;;;;;11.93;7.37;;;1.50;99.90;;;5.04;53.87;98349.59;5033077;28;20419;-44
2023/01/28 07:40:50;;;;;;;13.77;8.53;;;1.60;99.90;;;5.06;54.35;98345.03;5032681;28;20041;-47
2023/01/28 07:43:17;;;;;;;19.07;9.93;;;1.60;99.90;;;5.07;54.49;98346.72;5031699;28;20046;-48
2023/01/28 07:45:46;;;;;;;19.50;10.57;;;1.50;99.90;;;5.06;54.04;98352.09;5030698;28;20520;-45
2023/01/28 07:48:15;;;;;;;19.90;10.43;;;1.50;99.90;;;5.06;54.08;98354.72;5023840;28;20042;-43
2023/01/28 07:50:44;;;;;;;13.77;8.50;;;1.50;99.90;;;5.08;54.02;98358.97;5032605;28;20046;-47
2023/01/28 07:53:12;;;;;;;16.27;10.67;;;1.60;99.90;;;5.07;54.34;98362.56;5031982;28;20052;-43
2023/01/28 07:55:40;;;;;;;15.87;10.17;;;1.60;99.90;;;5.09;54.83;98362.44;5032762;28;20050;-45
2023/01/28 07:58:11;;;;;;;15.53;8.93;;;1.60;99.90;;;5.13;54.47;98367.38;5032363;28;20041;-44
2023/01/28 08:00:39;;;;;;;14.30;8.77;;;1.60;99.90;;;5.18;54.51;98368.88;5031016;28;20045;-46
2023/01/28 08:03:14;;;;;;;16.03;9.87;;;1.70;99.90;;;5.21;54.16;98368.66;5032385;28;20049;-47
2023/01/28 08:05:48;;;;;;;14.03;9.17;;;1.70;99.90;;;5.27;54.19;98362.91;5031524;28;20033;-50
2023/01/28 08:08:16;;;;;;;15.38;8.57;;;1.70;99.90;;;5.31;54.04;98373.16;5023435;28;20053;-46
2023/01/28 08:10:45;;;;;;;23.50;14.57;;;1.70;99.90;;;5.32;54.16;98374.00;5032025;28;20398;-46
2023/01/28 08:13:14;;;;;;;30.17;18.23;;;1.80;99.90;;;5.31;54.09;98377.59;5031417;28;20037;-43
2023/01/28 08:15:42;;;;;;;23.67;15.77;;;1.80;99.90;;;5.29;53.83;98382.13;5030914;28;20416;-44
2023/01/28 08:18:12;;;;;;;20.47;13.23;;;1.80;99.90;;;5.29;54.56;98367.16;5032170;28;20558;-43
2023/01/28 08:20:43;;;;;;;15.87;10.83;;;1.80;99.90;;;5.30;54.07;98374.09;5030506;28;20516;-45
2023/01/28 08:23:18;;;;;;;20.93;13.07;;;1.90;99.90;;;5.32;54.77;98382.75;5030701;28;20041;-47
2023/01/28 08:25:47;;;;;;;17.00;10.83;;;1.90;99.90;;;5.37;54.29;98377.16;5030691;28;20073;-45
2023/01/28 08:28:16;;;;;;;15.63;10.23;;;1.90;99.90;;;5.40;53.92;98379.56;5030886;28;20420;-45
2023/01/28 08:30:44;;;;;;;12.93;9.30;;;1.90;99.90;;;5.42;54.10;98385.59;5031823;28;20037;-44
2023/01/28 08:33:14;;;;;;;16.67;11.23;;;1.90;99.90;;;5.45;54.69;98384.53;5031727;28;20530;-45
2023/01/28 08:35:42;;;;;;;16.67;12.80;;;1.90;99.90;;;5.46;54.28;98386.22;5032150;28;20041;-49
2023/01/28 08:38:12;;;;;;;17.27;11.37;;;1.90;99.90;;;5.44;54.11;98377.56;5031871;28;20076;-49
2023/01/28 08:40:39;;;;;;;22.83;13.97;;;2.00;99.90;;;5.43;54.42;98381.13;5030580;28;20443;-47
2023/01/28 08:43:07;;;;;;;18.80;11.73;;;2.10;99.90;;;5.45;54.63;98382.72;5030108;28;20068;-49
2023/01/28 08:45:35;;;;;;;15.80;10.63;;;2.10;99.90;;;5.52;54.18;98383.13;5032149;28;20033;-47
2023/01/28 08:48:05;;;;;;;15.40;10.53;;;2.10;99.90;;;5.55;54.09;98382.91;5030861;28;20501;-44
2023/01/28 08:50:36;;;;;;;19.80;12.27;;;2.10;99.90;;;5.59;54.62;98381.72;5031901;28;20042;-47
2023/01/28 08:53:15;;;;;;;21.90;13.17;;;2.10;99.90;;;5.62;54.34;98381.50;5030320;28;20429;-46
2023/01/28 08:55:43;;;;;;;20.10;12.53;;;2.10;99.90;;;5.70;54.03;98383.59;5031723;28;20064;-46
2023/01/28 08:58:15;;;;;;;20.63;14.67;;;2.10;99.90;;;5.70;53.87;98381.78;5031199;28;20052;-46
2023/01/28 09:00:46;;;;;;;17.03;11.43;;;2.20;99.90;;;5.67;54.24;98392.56;5014059;28;20048;-48
2023/01/28 09:03:13;;;;;;;15.47;10.73;;;2.20;99.90;;;5.68;54.76;98394.28;5031407;28;20064;-47
2023/01/28 09:05:41;;;;;;;19.47;12.27;;;2.20;99.90;;;5.72;54.46;98394.91;5031678;28;20386;-46
2023/01/28 09:08:12;;;;;;;23.97;11.77;;;2.20;99.90;;;5.77;53.96;98399.81;5031159;28;20092;-44
2023/01/28 09:10:40;;;;;;;18.53;11.00;;;2.20;99.90;;;5.79;54.21;98400.56;5029281;28;20049;-46
2023/01/28 09:13:13;;;;;;;18.97;11.17;;;2.20;99.90;;;5.80;53.87;98396.97;5029539;28;20041;-46
2023/01/28 09:15:41;;;;;;;23.97;13.10;;;2.30;99.90;;;5.81;54.27;98411.84;5029875;28;20531;-46
2023/01/28 09:18:09;;;;;;;18.33;11.27;;;2.20;99.90;;;5.83;53.71;98407.31;5028579;28;20046;-45
2023/01/28 09:20:37;;;;;;;22.70;12.33;;;2.30;99.90;;;5.85;54.43;98411.50;5028337;28;20048;-46
2023/01/28 09:23:05;;;;;;;21.80;11.60;;;2.30;99.90;;;5.83;53.39;98412.59;5029419;28;20042;-45
2023/01/28 09:25:35;;;;;;;21.27;11.10;;;2.30;99.90;;;5.80;54.17;98412.84;5030495;28;20033;-44
2023/01/28 09:28:03;;;;;;;13.93;9.50;;;2.30;99.90;;;5.79;54.60;98411.97;5030902;28;20041;-46
2023/01/28 09:30:31;;;;;;;18.30;11.10;;;2.30;99.90;;;5.81;54.33;98419.78;5030926;28;20049;-45
2023/01/28 09:32:58;;;;;;;19.53;12.27;;;2.30;99.90;;;5.80;54.39;98420.75;5029858;28;20493;-45
2023/01/28 09:35:26;;;;;;;16.27;9.67;;;2.20;99.90;;;5.75;53.30;98421.06;5030960;28;20049;-46
2023/01/28 09:37:58;;;;;;;20.53;11.60;;;2.20;99.90;;;5.75;54.34;98422.88;5030998;28;20052;-48
2023/01/28 09:40:42;;;;;;;20.07;13.20;;;2.20;99.90;;;5.79;54.23;98421.69;5030893;28;20056;-50
2023/01/28 09:44:04;;;;;;;21.43;11.00;;;2.20;99.90;;;5.75;53.93;98430.81;5026498;28;20042;-48
2023/01/28 09:46:35;;;;;;;19.60;11.77;;;2.30;99.90;;;5.77;54.05;98437.66;5023321;28;20042;-48
2023/01/28 09:49:27;;;;;;;19.37;10.40;;;2.30;99.90;;;5.71;54.24;98433.66;5029262;28;20049;-48
2023/01/28 09:51:56;;;;;;;16.97;11.17;;;2.30;99.90;;;5.73;53.63;98439.69;5029404;28;20420;-47
2023/01/28 09:54:39;;;;;;;25.40;14.30;;;2.30;99.90;;;5.67;54.44;98434.84;5031240;28;20041;-46
2023/01/28 09:57:24;;;;;;;15.33;10.10;;;2.20;99.90;;;5.70;54.31;98444.38;5029738;28;20057;-45
2023/01/28 09:59:52;;;;;;;17.10;11.20;;;2.20;99.90;;;5.73;54.80;98449.41;5029690;28;20436;-48
2023/01/28 10:02:28;;;;;;;23.47;12.90;;;2.30;99.90;;;5.68;53.98;98443.59;5029189;28;20416;-46
2023/01/28 10:05:15;;;;;;;25.63;14.00;;;2.20;99.90;;;5.67;54.55;98447.22;5030736;28;20049;-50
2023/01/28 10:08:17;;;;;;;22.17;13.13;;;2.20;99.90;;;5.68;54.44;98448.88;5030983;28;20033;-45
2023/01/28 10:10:54;;;;;;;17.37;10.87;;;2.20;99.90;;;5.67;53.98;98436.66;5025812;28;20078;-47
2023/01/28 10:13:59;;;;;;;24.37;15.00;;;2.20;99.90;;;5.64;54.58;98440.38;5022929;28;20041;-47
2023/01/28 10:17:06;;;;;;;21.67;12.77;;;2.10;99.90;;;5.70;54.42;98432.00;5023580;28;20057;-46
2023/01/28 10:19:48;;;;;;;26.87;16.23;;;2.30;99.90;;;5.77;53.81;98429.72;5029690;28;20060;-49
2023/01/28 10:22:29;;;;;;;21.63;12.97;;;2.30;99.90;;;5.81;54.55;98433.84;5029143;28;20489;-46
2023/01/28 10:25:05;;;;;;;22.20;12.43;;;2.30;99.90;;;5.83;53.99;98431.91;5029620;28;20397;-46
2023/01/28 10:27:36;;;;;;;18.03;10.23;;;2.40;99.90;;;5.80;54.10;98421.59;5030482;28;20034;-47
2023/01/28 10:30:26;;;;;;;20.87;11.93;;;2.20;99.90;;;5.80;53.69;98424.22;5029550;28;20447;-45
2023/01/28 10:33:12;;;;;;;20.33;11.70;;;2.40;99.90;;;5.84;53.57;98427.50;5030794;28;20041;-48
2023/01/28 10:35:41;;;;;;;23.37;13.00;;;2.40;99.90;;;5.86;54.26;98423.78;5025123;28;20033;-45
2023/01/28 10:38:16;;;;;;;21.43;11.73;;;2.40;99.90;;;5.89;53.75;98422.69;5031743;28;20045;-45
2023/01/28 10:40:46;;;;;;;20.63;12.50;;;2.40;99.90;;;5.92;53.70;98419.84;5033983;28;20041;-49
2023/01/28 10:43:23;;;;;;;27.53;12.53;;;2.50;99.90;;;5.99;53.66;98417.63;5034228;28;20056;-48
2023/01/28 10:46:25;;;;;;;22.10;12.27;;;2.50;99.90;;;6.04;54.22;98412.84;5033059;28;20147;-48
2023/01/28 10:49:08;;;;;;;24.07;13.20;;;2.60;99.90;;;6.08;53.98;98419.59;5027509;28;20421;-49
2023/01/28 10:51:40;;;;;;;21.60;11.80;;;2.70;99.90;;;6.13;53.70;98428.03;5027750;28;20493;-46
2023/01/28 10:54:26;;;;;;;24.80;12.10;;;2.70;99.90;;;6.13;54.55;98420.09;5032880;28;20442;-47
2023/01/28 10:57:02;;;;;;;21.47;12.43;;;2.70;99.90;;;6.20;53.90;98417.81;5034007;28;20045;-45
2023/01/28 10:59:35;;;;;;;20.10;10.53;;;2.70;99.90;;;6.21;53.40;98420.34;5025597;28;20056;-46
2023/01/28 11:02:19;;;;;;;18.52;10.80;;;2.70;99.90;;;6.23;53.03;98422.91;5033413;28;20041;-48
2023/01/28 11:04:47;;;;;;;24.00;11.80;;;2.70;99.90;;;6.22;53.31;98430.00;5032606;28;20041;-48
2023/01/28 11:07:19;;;;;;;18.97;10.80;;;2.70;99.90;;;6.21;53.30;98425.66;5033590;28;20493;-49
2023/01/28 11:09:50;;;;;;;17.77;10.60;;;2.70;99.90;;;6.21;53.67;98427.44;5033774;28;20045;-49
2023/01/28 11:12:29;;;;;;;14.57;9.43;;;2.70;99.90;;;6.15;53.72;98427.91;5033387;28;20508;-46
2023/01/28 11:15:02;;;;;;;14.87;8.83;;;2.60;99.90;;;6.12;53.00;98428.97;5033674;28;20046;-48
2023/01/28 11:17:38;;;;;;;17.60;10.90;;;2.60;99.90;;;6.10;53.12;98421.16;5041373;28;20037;-48
2023/01/28 11:20:19;;;;;;;16.20;9.80;;;2.60;99.90;;;6.15;53.36;98431.41;5032908;28;20048;-46
2023/01/28 11:22:48;;;;;;;13.80;8.83;;;2.60;99.90;;;6.06;53.26;98432.06;5033307;28;20041;-46